sensor_id;sensor_type;location;lat;lon;timestamp;P1;durP1;ratioP1;P2;durP2;ratioP2
69805;SDS011;57090;51.006;4.592;2024-01-15T18:12:24;14.02;;;6.00;;
69805;SDS011;57090;51.006;4.592;2024-01-15T18:14:50;11.63;;;5.63;;
69805;SDS011;57090;51.006;4.592;2024-01-15T18:17:16;15.52;;;5.93;;
69805;SDS011;57090;51.006;4.592;2024-01-15T18:19:41;13.57;;;5.18;;
69805;SDS011;57090;51.006;4.592;2024-01-15T18:22:07;17.58;;;5.95;;
69805;SDS011;57090;51.006;4.592;2024-01-15T18:24:34;12.68;;;4.80;;
69805;SDS011;57090;51.006;4.592;2024-01-15T18:27:00;15.30;;;5.43;;
69805;SDS011;57090;51.006;4.592;2024-01-15T18:29:28;16.10;;;6.10;;
69805;SDS011;57090;51.006;4.592;2024-01-15T18:31:54;18.90;;;4.82;;
69805;SDS011;57090;51.006;4.592;2024-01-15T18:34:20;15.32;;;6.97;;
69805;SDS011;57090;51.006;4.592;2024-01-15T18:36:46;18.20;;;6.80;;
69805;SDS011;57090;51.006;4.592;2024-01-15T18:39:16;14.15;;;6.53;;
69805;SDS011;57090;51.006;4.592;2024-01-15T18:41:43;11.45;;;6.90;;
69805;SDS011;57090;51.006;4.592;2024-01-15T18:44:09;17.30;;;8.48;;
69805;SDS011;57090;51.006;4.592;2024-01-15T18:46:36;15.23;;;6.97;;
69805;SDS011;57090;51.006;4.592;2024-01-15T18:49:02;14.32;;;8.18;;
69805;SDS011;57090;51.006;4.592;2024-01-15T18:51:31;22.95;;;8.80;;
69805;SDS011;57090;51.006;4.592;2024-01-15T18:53:57;13.05;;;7.88;;
69805;SDS011;57090;51.006;4.592;2024-01-15T18:56:23;17.83;;;8.63;;
69805;SDS011;57090;51.006;4.592;2024-01-15T18:58:49;15.98;;;8.25;;
69805;SDS011;57090;51.006;4.592;2024-01-15T19:01:25;15.35;;;8.02;;
69805;SDS011;57090;51.006;4.592;2024-01-15T19:03:52;15.70;;;8.63;;
69805;SDS011;57090;51.006;4.592;2024-01-15T19:06:17;17.60;;;8.07;;
69805;SDS011;57090;51.006;4.592;2024-01-15T19:08:43;16.48;;;8.70;;
69805;SDS011;57090;51.006;4.592;2024-01-15T19:11:09;21.77;;;10.02;;
69805;SDS011;57090;51.006;4.592;2024-01-15T19:13:36;28.48;;;11.93;;
69805;SDS011;57090;51.006;4.592;2024-01-15T19:16:02;21.58;;;10.68;;
69805;SDS011;57090;51.006;4.592;2024-01-15T19:18:28;23.90;;;11.25;;
69805;SDS011;57090;51.006;4.592;2024-01-15T19:20:54;20.27;;;11.65;;
69805;SDS011;57090;51.006;4.592;2024-01-15T19:23:20;23.00;;;10.73;;
69805;SDS011;57090;51.006;4.592;2024-01-15T19:25:46;24.45;;;11.80;;
69805;SDS011;57090;51.006;4.592;2024-01-15T19:28:11;23.17;;;11.73;;
69805;SDS011;57090;51.006;4.592;2024-01-15T19:30:38;26.60;;;12.98;;
69805;SDS011;57090;51.006;4.592;2024-01-15T19:33:05;29.77;;;14.23;;
69805;SDS011;57090;51.006;4.592;2024-01-15T19:35:31;28.15;;;13.40;;
69805;SDS011;57090;51.006;4.592;2024-01-15T19:37:57;25.73;;;12.82;;
69805;SDS011;57090;51.006;4.592;2024-01-15T19:40:23;31.17;;;12.07;;
69805;SDS011;57090;51.006;4.592;2024-01-15T19:42:49;30.15;;;11.98;;
69805;SDS011;57090;51.006;4.592;2024-01-15T19:45:15;26.17;;;11.30;;
69805;SDS011;57090;51.006;4.592;2024-01-15T19:47:43;34.80;;;10.35;;
69805;SDS011;57090;51.006;4.592;2024-01-15T19:50:09;28.30;;;11.52;;
69805;SDS011;57090;51.006;4.592;2024-01-15T19:52:35;30.90;;;9.90;;
69805;SDS011;57090;51.006;4.592;2024-01-15T19:55:01;21.75;;;10.20;;
69805;SDS011;57090;51.006;4.592;2024-01-15T19:57:27;22.35;;;10.75;;
69805;SDS011;57090;51.006;4.592;2024-01-15T19:59:53;29.83;;;10.30;;
69805;SDS011;57090;51.006;4.592;2024-01-15T20:02:19;31.02;;;10.70;;
69805;SDS011;57090;51.006;4.592;2024-01-15T20:04:45;24.67;;;9.95;;
69805;SDS011;57090;51.006;4.592;2024-01-15T20:07:11;25.65;;;9.32;;
69805;SDS011;57090;51.006;4.592;2024-01-15T20:09:37;27.50;;;8.73;;
69805;SDS011;57090;51.006;4.592;2024-01-15T20:12:03;25.00;;;8.70;;
69805;SDS011;57090;51.006;4.592;2024-01-15T20:14:30;32.05;;;8.75;;
69805;SDS011;57090;51.006;4.592;2024-01-15T20:16:56;27.33;;;7.78;;
69805;SDS011;57090;51.006;4.592;2024-01-15T20:19:26;31.27;;;8.18;;
69805;SDS011;57090;51.006;4.592;2024-01-15T20:21:51;28.58;;;8.65;;
69805;SDS011;57090;51.006;4.592;2024-01-15T20:24:17;24.15;;;7.80;;
69805;SDS011;57090;51.006;4.592;2024-01-15T20:26:46;22.77;;;7.57;;
69805;SDS011;57090;51.006;4.592;2024-01-15T20:29:12;27.52;;;7.88;;
69805;SDS011;57090;51.006;4.592;2024-01-15T20:31:38;19.80;;;7.22;;
69805;SDS011;57090;51.006;4.592;2024-01-15T20:34:04;19.77;;;6.57;;
69805;SDS011;57090;51.006;4.592;2024-01-15T20:36:29;28.70;;;6.95;;
69805;SDS011;57090;51.006;4.592;2024-01-15T20:38:56;21.20;;;6.57;;
69805;SDS011;57090;51.006;4.592;2024-01-15T20:41:21;21.90;;;6.90;;
69805;SDS011;57090;51.006;4.592;2024-01-15T20:43:47;22.08;;;6.18;;
69805;SDS011;57090;51.006;4.592;2024-01-15T20:46:13;18.35;;;6.07;;
69805;SDS011;57090;51.006;4.592;2024-01-15T20:48:39;24.55;;;6.55;;
69805;SDS011;57090;51.006;4.592;2024-01-15T20:51:04;23.45;;;6.07;;
69805;SDS011;57090;51.006;4.592;2024-01-15T20:53:30;24.48;;;7.18;;
69805;SDS011;57090;51.006;4.592;2024-01-15T20:55:56;22.70;;;6.15;;
69805;SDS011;57090;51.006;4.592;2024-01-15T20:58:24;17.90;;;5.68;;
69805;SDS011;57090;51.006;4.592;2024-01-15T21:00:50;19.52;;;6.78;;
69805;SDS011;57090;51.006;4.592;2024-01-15T21:03:17;13.63;;;6.03;;
69805;SDS011;57090;51.006;4.592;2024-01-15T21:05:43;20.98;;;7.13;;
69805;SDS011;57090;51.006;4.592;2024-01-15T21:08:09;19.23;;;7.07;;
69805;SDS011;57090;51.006;4.592;2024-01-15T21:10:35;19.33;;;6.32;;
69805;SDS011;57090;51.006;4.592;2024-01-15T21:13:00;23.83;;;6.65;;
69805;SDS011;57090;51.006;4.592;2024-01-15T21:15:26;23.55;;;7.15;;
69805;SDS011;57090;51.006;4.592;2024-01-15T21:17:52;23.95;;;6.05;;
69805;SDS011;57090;51.006;4.592;2024-01-15T21:20:20;20.27;;;6.55;;
69805;SDS011;57090;51.006;4.592;2024-01-15T21:22:46;25.25;;;5.60;;
69805;SDS011;57090;51.006;4.592;2024-01-15T21:25:11;17.98;;;5.60;;
69805;SDS011;57090;51.006;4.592;2024-01-15T21:27:37;19.63;;;5.88;;
69805;SDS011;57090;51.006;4.592;2024-01-15T21:30:06;28.17;;;6.10;;
69805;SDS011;57090;51.006;4.592;2024-01-15T21:32:32;25.83;;;5.63;;
69805;SDS011;57090;51.006;4.592;2024-01-15T21:34:58;19.30;;;5.65;;
69805;SDS011;57090;51.006;4.592;2024-01-15T21:37:24;21.38;;;5.70;;
69805;SDS011;57090;51.006;4.592;2024-01-15T21:39:52;12.05;;;5.22;;
69805;SDS011;57090;51.006;4.592;2024-01-15T21:42:17;16.98;;;6.07;;
69805;SDS011;57090;51.006;4.592;2024-01-15T21:44:45;27.60;;;6.15;;
69805;SDS011;57090;51.006;4.592;2024-01-15T21:47:10;21.48;;;5.68;;
69805;SDS011;57090;51.006;4.592;2024-01-15T21:49:36;13.38;;;4.90;;
69805;SDS011;57090;51.006;4.592;2024-01-15T21:52:02;13.25;;;4.97;;
69805;SDS011;57090;51.006;4.592;2024-01-15T21:54:27;19.75;;;5.35;;
69805;SDS011;57090;51.006;4.592;2024-01-15T21:56:53;26.58;;;5.88;;
69805;SDS011;57090;51.006;4.592;2024-01-15T21:59:19;16.20;;;6.35;;
69805;SDS011;57090;51.006;4.592;2024-01-15T22:01:44;19.92;;;5.72;;
69805;SDS011;57090;51.006;4.592;2024-01-15T22:04:16;22.85;;;6.18;;
69805;SDS011;57090;51.006;4.592;2024-01-15T22:06:42;15.23;;;5.28;;
69805;SDS011;57090;51.006;4.592;2024-01-15T22:09:08;19.13;;;5.85;;
69805;SDS011;57090;51.006;4.592;2024-01-15T22:11:34;19.77;;;5.88;;
69805;SDS011;57090;51.006;4.592;2024-01-15T22:14:00;22.42;;;5.32;;
69805;SDS011;57090;51.006;4.592;2024-01-15T22:16:27;16.48;;;5.55;;
69805;SDS011;57090;51.006;4.592;2024-01-15T22:18:52;21.20;;;6.38;;
69805;SDS011;57090;51.006;4.592;2024-01-15T22:21:18;17.70;;;5.22;;
69805;SDS011;57090;51.006;4.592;2024-01-15T22:23:44;22.67;;;5.70;;
69805;SDS011;57090;51.006;4.592;2024-01-15T22:26:09;16.92;;;5.35;;
69805;SDS011;57090;51.006;4.592;2024-01-15T22:28:35;15.52;;;5.13;;
69805;SDS011;57090;51.006;4.592;2024-01-15T22:31:01;20.20;;;4.93;;
69805;SDS011;57090;51.006;4.592;2024-01-15T22:33:27;20.20;;;5.53;;
69805;SDS011;57090;51.006;4.592;2024-01-15T22:35:53;16.42;;;4.70;;
69805;SDS011;57090;51.006;4.592;2024-01-15T22:38:19;21.00;;;5.60;;
69805;SDS011;57090;51.006;4.592;2024-01-15T22:40:44;19.60;;;6.00;;
69805;SDS011;57090;51.006;4.592;2024-01-15T22:43:10;19.38;;;5.30;;
69805;SDS011;57090;51.006;4.592;2024-01-15T22:45:36;13.88;;;5.47;;
69805;SDS011;57090;51.006;4.592;2024-01-15T22:48:02;13.20;;;6.35;;
69805;SDS011;57090;51.006;4.592;2024-01-15T22:50:27;23.70;;;5.25;;
69805;SDS011;57090;51.006;4.592;2024-01-15T22:52:53;28.10;;;5.85;;
69805;SDS011;57090;51.006;4.592;2024-01-15T22:55:19;18.13;;;5.57;;
69805;SDS011;57090;51.006;4.592;2024-01-15T22:57:44;17.65;;;5.10;;
69805;SDS011;57090;51.006;4.592;2024-01-15T23:00:10;16.30;;;6.22;;
69805;SDS011;57090;51.006;4.592;2024-01-15T23:02:43;23.05;;;6.00;;
69805;SDS011;57090;51.006;4.592;2024-01-15T23:05:11;12.48;;;5.22;;
69805;SDS011;57090;51.006;4.592;2024-01-15T23:07:37;20.85;;;6.43;;
69805;SDS011;57090;51.006;4.592;2024-01-15T23:10:03;17.85;;;5.68;;
69805;SDS011;57090;51.006;4.592;2024-01-15T23:12:31;16.80;;;5.43;;
69805;SDS011;57090;51.006;4.592;2024-01-15T23:14:56;14.02;;;5.70;;
69805;SDS011;57090;51.006;4.592;2024-01-15T23:17:22;24.98;;;6.05;;
69805;SDS011;57090;51.006;4.592;2024-01-15T23:19:48;17.10;;;5.88;;
69805;SDS011;57090;51.006;4.592;2024-01-15T23:22:14;15.40;;;6.10;;
69805;SDS011;57090;51.006;4.592;2024-01-15T23:24:40;24.13;;;5.35;;
69805;SDS011;57090;51.006;4.592;2024-01-15T23:27:06;17.40;;;5.55;;
69805;SDS011;57090;51.006;4.592;2024-01-15T23:29:32;18.88;;;6.60;;
69805;SDS011;57090;51.006;4.592;2024-01-15T23:31:57;21.95;;;6.05;;
69805;SDS011;57090;51.006;4.592;2024-01-15T23:34:23;22.92;;;6.00;;
69805;SDS011;57090;51.006;4.592;2024-01-15T23:36:49;14.38;;;5.47;;
69805;SDS011;57090;51.006;4.592;2024-01-15T23:39:14;12.95;;;5.18;;
69805;SDS011;57090;51.006;4.592;2024-01-15T23:41:40;16.88;;;5.60;;
69805;SDS011;57090;51.006;4.592;2024-01-15T23:44:06;18.25;;;5.30;;
69805;SDS011;57090;51.006;4.592;2024-01-15T23:46:33;12.73;;;5.40;;
69805;SDS011;57090;51.006;4.592;2024-01-15T23:48:58;22.33;;;5.70;;
69805;SDS011;57090;51.006;4.592;2024-01-15T23:51:24;21.92;;;6.32;;
69805;SDS011;57090;51.006;4.592;2024-01-15T23:53:50;15.68;;;6.28;;
69805;SDS011;57090;51.006;4.592;2024-01-15T23:56:16;20.15;;;6.10;;
69805;SDS011;57090;51.006;4.592;2024-01-15T23:58:41;18.45;;;5.75;;
